Time;durP1;ratioP1;P1;durP2;ratioP2;P2;SDS_P1;SDS_P2;PMS_P1;PMS_P2;Temp;Humidity;BMP_temperature;BMP_pressure;BME280_temperature;BME280_humidity;BME280_pressure;Samples;Min_cycle;Max_cycle;Signal;HPM_P1;HPM_P2
2023/06/26 00:02:24;;;;;;;;;;;;;;;22.08;30.04;97419.91;5003076;28;787;-80
2023/06/26 00:04:53;;;;;;;;;;;;;;;22.10;30.17;97408.88;5002165;28;1264;-80
2023/06/26 00:07:19;;;;;;;;;;;;;;;22.03;30.32;97400.66;4987370;28;766;-81
2023/06/26 00:09:45;;;;;;;;;;;;;;;22.04;30.00;97419.22;5017967;28;747;-80
2023/06/26 00:12:10;;;;;;;;;;;;;;;22.39;29.64;97405.00;5007084;28;952;-80
2023/06/26 00:14:36;;;;;;;;;;;;;;;22.29;29.69;97413.44;5075794;28;755;-80
2023/06/26 00:17:01;;;;;;;;;;;;;;;22.39;29.78;97416.31;5076915;28;1981;-80
2023/06/26 00:19:27;;;;;;;;;;;;;;;22.44;29.62;97427.06;5075275;28;754;-80
2023/06/26 00:21:52;;;;;;;;;;;;;;;22.46;29.28;97425.31;5061361;28;850;-80
2023/06/26 00:24:18;;;;;;;;;;;;;;;22.34;29.90;97427.00;5060131;28;822;-80
2023/06/26 00:26:47;;;;;;;;;;;;;;;22.51;29.59;97423.94;5061125;28;857;-80
2023/06/26 00:29:13;;;;;;;;;;;;;;;22.49;29.59;97421.56;5060275;28;746;-80
2023/06/26 00:31:39;;;;;;;;;;;;;;;22.24;29.88;97416.09;5075783;28;740;-80
2023/06/26 00:34:05;;;;;;;;;;;;;;;22.18;29.96;97421.56;5074665;28;1064;-80
2023/06/26 00:36:31;;;;;;;;;;;;;;;22.22;29.93;97413.69;5035462;28;1982;-80
2023/06/26 00:38:56;;;;;;;;;;;;;;;22.31;29.60;97410.91;5002165;28;872;-80
2023/06/26 00:41:22;;;;;;;;;;;;;;;22.33;29.91;97408.44;4986751;28;798;-80
2023/06/26 00:43:48;;;;;;;;;;;;;;;22.43;29.79;97411.28;4985480;28;1169;-80
2023/06/26 00:46:13;;;;;;;;;;;;;;;22.46;29.67;97416.03;5019013;28;1129;-80
2023/06/26 00:48:41;;;;;;;;;;;;;;;22.56;29.65;97417.66;5001547;28;1126;-80
2023/06/26 00:51:06;;;;;;;;;;;;;;;22.39;29.63;97419.16;4986297;28;1259;-80
2023/06/26 00:53:32;;;;;;;;;;;;;;;22.42;29.48;97413.34;5001147;28;873;-80
2023/06/26 00:55:57;;;;;;;;;;;;;;;22.34;29.63;97404.31;4987015;28;1883;-80
2023/06/26 00:58:23;;;;;;;;;;;;;;;22.58;29.31;97409.47;4968869;28;1192;-80
2023/06/26 01:00:49;;;;;;;;;;;;;;;22.49;29.51;97403.78;5018606;28;773;-80
2023/06/26 01:03:14;;;;;;;;;;;;;;;22.30;29.71;97403.66;5033994;28;1163;-80
2023/06/26 01:05:40;;;;;;;;;;;;;;;22.04;30.10;97393.72;4953936;28;873;-80
2023/06/26 01:08:05;;;;;;;;;;;;;;;22.14;30.06;97395.41;5018052;28;773;-80
2023/06/26 01:10:31;;;;;;;;;;;;;;;22.08;30.10;97391.56;5002058;28;818;-80
2023/06/26 01:12:57;;;;;;;;;;;;;;;21.91;30.48;97393.78;5004977;28;905;-80
2023/06/26 01:15:22;;;;;;;;;;;;;;;22.22;29.90;97396.69;5060124;28;774;-80
2023/06/26 01:17:50;;;;;;;;;;;;;;;22.19;30.04;97386.31;5060231;28;1973;-80
2023/06/26 01:20:16;;;;;;;;;;;;;;;22.24;29.85;97382.88;5075321;28;1177;-80
2023/06/26 01:22:52;;;;;;;;;;;;;;;22.43;29.40;97394.28;5042673;28;889;-80
2023/06/26 01:25:20;;;;;;;;;;;;;;;22.32;29.78;97389.81;5075051;28;829;-80
2023/06/26 01:27:46;;;;;;;;;;;;;;;22.34;29.54;97398.66;5075650;28;873;-80
2023/06/26 01:30:12;;;;;;;;;;;;;;;22.20;29.90;97390.72;5037726;28;876;-80
2023/06/26 01:32:37;;;;;;;;;;;;;;;22.31;29.75;97388.25;5037964;28;1180;-80
2023/06/26 01:35:04;;;;;;;;;;;;;;;22.46;29.45;97391.31;5001412;28;950;-80
2023/06/26 01:37:30;;;;;;;;;;;;;;;22.24;29.89;97385.69;4963156;28;1907;-80
2023/06/26 01:39:55;;;;;;;;;;;;;;;22.09;30.08;97387.47;4962218;28;975;-80
2023/06/26 01:42:21;;;;;;;;;;;;;;;22.20;29.87;97378.59;4946851;28;972;-80
2023/06/26 01:44:46;;;;;;;;;;;;;;;22.05;29.83;97373.44;4962178;28;938;-80
2023/06/26 01:47:17;;;;;;;;;;;;;;;22.15;29.72;97377.13;4963034;28;950;-80
2023/06/26 01:49:56;;;;;;;;;;;;;;;22.26;29.89;97379.56;4962602;28;767;-80
2023/06/26 01:52:25;;;;;;;;;;;;;;;22.30;29.99;97383.03;4947184;28;1125;-80
2023/06/26 01:54:55;;;;;;;;;;;;;;;22.22;30.00;97391.03;4923761;29;939;-80
2023/06/26 01:57:22;;;;;;;;;;;;;;;22.04;30.26;97388.06;4902475;29;1972;-80
2023/06/26 01:59:48;;;;;;;;;;;;;;;22.30;29.86;97386.66;4886287;29;1078;-80
2023/06/26 02:02:13;;;;;;;;;;;;;;;22.44;29.71;97378.88;4902855;29;1365;-80
2023/06/26 02:04:40;;;;;;;;;;;;;;;22.08;30.00;97375.34;4902799;29;1239;-80
2023/06/26 02:07:05;;;;;;;;;;;;;;;22.19;29.94;97379.84;4939797;29;1173;-80
2023/06/26 02:09:31;;;;;;;;;;;;;;;22.33;29.84;97379.28;4944606;29;1216;-80
2023/06/26 02:11:57;;;;;;;;;;;;;;;22.26;30.07;97373.88;4947442;29;1141;-80
2023/06/26 02:14:22;;;;;;;;;;;;;;;22.22;29.85;97373.22;4946284;29;1519;-80
2023/06/26 02:16:48;;;;;;;;;;;;;;;22.32;29.59;97372.03;4930576;29;1990;-80
2023/06/26 02:19:21;;;;;;;;;;;;;;;22.15;30.13;97374.31;4946065;29;870;-80
2023/06/26 02:21:49;;;;;;;;;;;;;;;22.26;29.70;97371.84;4947973;29;747;-80
2023/06/26 02:24:15;;;;;;;;;;;;;;;22.06;30.25;97358.00;4945458;29;826;-80
2023/06/26 02:26:40;;;;;;;;;;;;;;;22.15;30.25;97365.03;4995925;28;1193;-80
2023/06/26 02:29:06;;;;;;;;;;;;;;;22.15;29.99;97362.97;5020474;28;1232;-80
2023/06/26 02:31:31;;;;;;;;;;;;;;;22.35;29.97;97366.22;5045210;28;1131;-80
2023/06/26 02:33:57;;;;;;;;;;;;;;;22.33;29.59;97363.06;5036628;28;1129;-80
2023/06/26 02:36:22;;;;;;;;;;;;;;;22.36;29.67;97370.63;5004520;28;1960;-80
2023/06/26 02:38:48;;;;;;;;;;;;;;;22.29;29.95;97359.59;5003492;28;814;-80
2023/06/26 02:41:14;;;;;;;;;;;;;;;22.20;30.02;97362.38;5004736;28;1271;-80
2023/06/26 02:43:39;;;;;;;;;;;;;;;22.11;30.26;97353.81;4983541;28;1246;-80
2023/06/26 02:46:05;;;;;;;;;;;;;;;22.21;29.77;97354.66;4984967;28;1282;-80
2023/06/26 02:48:30;;;;;;;;;;;;;;;22.41;29.16;97357.91;4967090;28;1171;-80
2023/06/26 02:50:56;;;;;;;;;;;;;;;22.24;29.62;97360.19;5001150;28;783;-80
2023/06/26 02:53:26;;;;;;;;;;;;;;;21.93;30.33;97356.53;4999535;28;1152;-80
2023/06/26 02:55:52;;;;;;;;;;;;;;;22.15;29.87;97357.31;4985372;28;1255;-80
2023/06/26 02:58:18;;;;;;;;;;;;;;;22.30;29.81;97355.50;4967160;28;1904;-80
2023/06/26 03:00:44;;;;;;;;;;;;;;;22.36;29.60;97367.78;4984444;28;1495;-80
2023/06/26 03:03:14;;;;;;;;;;;;;;;22.54;29.25;97366.31;4968005;28;1129;-80
2023/06/26 03:05:39;;;;;;;;;;;;;;;22.39;29.65;97366.09;4983647;28;1306;-80
2023/06/26 03:08:05;;;;;;;;;;;;;;;22.49;29.62;97366.94;5006535;28;1302;-80
2023/06/26 03:10:31;;;;;;;;;;;;;;;22.27;29.79;97364.13;5007322;28;1081;-80
2023/06/26 03:12:57;;;;;;;;;;;;;;;22.42;29.57;97361.53;5006563;28;905;-80
2023/06/26 03:15:23;;;;;;;;;;;;;;;22.30;29.73;97366.84;5022470;28;1059;-80
2023/06/26 03:17:48;;;;;;;;;;;;;;;22.25;30.05;97367.44;5022384;28;1883;-80
2023/06/26 03:20:21;;;;;;;;;;;;;;;22.20;30.11;97370.88;4996630;28;1257;-79
2023/06/26 03:22:51;;;;;;;;;;;;;;;22.40;29.98;97372.53;5019351;28;1147;-80
2023/06/26 03:25:17;;;;;;;;;;;;;;;22.28;30.08;97377.06;5019378;28;908;-80
2023/06/26 03:27:42;;;;;;;;;;;;;;;22.43;29.77;97368.75;5019986;28;1179;-80
2023/06/26 03:30:09;;;;;;;;;;;;;;;22.28;30.07;97369.34;4986825;28;1222;-79
2023/06/26 03:32:37;;;;;;;;;;;;;;;22.35;30.11;97371.09;4987282;28;1275;-80
2023/06/26 03:35:03;;;;;;;;;;;;;;;22.30;29.95;97375.34;5002616;28;821;-80
2023/06/26 03:37:29;;;;;;;;;;;;;;;22.26;30.02;97374.69;4973631;28;1989;-80
2023/06/26 03:39:54;;;;;;;;;;;;;;;22.37;29.80;97368.59;4902973;29;1366;-80
2023/06/26 03:42:21;;;;;;;;;;;;;;;22.05;30.37;97376.25;4926986;29;1119;-80
2023/06/26 03:44:46;;;;;;;;;;;;;;;22.23;30.06;97381.28;4903527;29;1156;-80
2023/06/26 03:47:12;;;;;;;;;;;;;;;22.34;29.94;97376.00;4904495;29;1181;-80
2023/06/26 03:49:37;;;;;;;;;;;;;;;22.12;30.32;97375.22;4888039;29;1135;-80
2023/06/26 03:52:04;;;;;;;;;;;;;;;22.39;29.72;97373.81;4904967;29;1122;-80
2023/06/26 03:54:29;;;;;;;;;;;;;;;22.19;30.00;97368.50;4907964;29;1612;-80
2023/06/26 03:56:55;;;;;;;;;;;;;;;22.26;30.04;97371.84;4904501;29;1910;-81
2023/06/26 03:59:20;;;;;;;;;;;;;;;22.32;30.09;97367.13;4922035;29;1358;-80
2023/06/26 04:01:46;;;;;;;;;;;;;;;22.15;30.46;97360.13;4923884;29;1289;-80
2023/06/26 04:04:14;;;;;;;;;;;;;;;22.22;30.43;97357.00;4937723;29;998;-80
2023/06/26 04:06:39;;;;;;;;;;;;;;;22.23;30.43;97352.16;4933489;29;1459;-80
2023/06/26 04:09:05;;;;;;;;;;;;;;;22.39;30.17;97365.31;4923976;29;1365;-80
2023/06/26 04:11:31;;;;;;;;;;;;;;;22.32;30.16;97367.13;4942412;29;929;-80
2023/06/26 04:13:56;;;;;;;;;;;;;;;22.55;30.23;97363.00;4941236;29;880;-80
2023/06/26 04:16:25;;;;;;;;;;;;;;;22.41;30.53;97368.44;4986500;28;1907;-80
2023/06/26 04:18:51;;;;;;;;;;;;;;;22.43;30.29;97371.59;4999062;28;1230;-80
2023/06/26 04:21:17;;;;;;;;;;;;;;;22.35;30.46;97366.22;4984116;28;916;-80
2023/06/26 04:23:42;;;;;;;;;;;;;;;22.28;30.74;97365.72;4982256;28;1478;-80
2023/06/26 04:26:08;;;;;;;;;;;;;;;22.38;30.80;97366.53;4967728;28;1333;-80
2023/06/26 04:28:34;;;;;;;;;;;;;;;22.26;30.90;97371.84;4982723;28;998;-80
2023/06/26 04:30:59;;;;;;;;;;;;;;;22.26;30.91;97369.00;4984016;28;1095;-80
2023/06/26 04:33:25;;;;;;;;;;;;;;;22.39;30.72;97370.97;4982283;28;1469;-80
2023/06/26 04:35:51;;;;;;;;;;;;;;;22.46;30.35;97365.00;4983828;28;962;-81
2023/06/26 04:38:16;;;;;;;;;;;;;;;22.40;30.60;97361.22;4982347;28;1915;-80
2023/06/26 04:40:42;;;;;;;;;;;;;;;22.34;30.58;97364.66;4999564;28;1368;-80
2023/06/26 04:43:08;;;;;;;;;;;;;;;22.28;30.70;97360.84;5013556;28;1023;-80
2023/06/26 04:45:33;;;;;;;;;;;;;;;22.27;30.76;97364.13;4989914;28;971;-80
2023/06/26 04:48:00;;;;;;;;;;;;;;;22.40;30.53;97361.22;5006534;28;990;-80
2023/06/26 04:50:25;;;;;;;;;;;;;;;22.61;30.05;97361.13;5006514;28;1051;-80
2023/06/26 04:52:51;;;;;;;;;;;;;;;22.60;30.35;97359.56;4990304;28;1345;-80
2023/06/26 04:55:16;;;;;;;;;;;;;;;22.43;30.16;97365.94;5021646;28;1314;-80
2023/06/26 04:57:42;;;;;;;;;;;;;;;22.44;30.28;97373.19;5040681;28;1914;-80
2023/06/26 05:00:10;;;;;;;;;;;;;;;22.45;30.73;97363.44;5040038;28;875;-80
2023/06/26 05:02:36;;;;;;;;;;;;;;;22.36;30.58;97367.78;5041309;28;823;-80
2023/06/26 05:05:01;;;;;;;;;;;;;;;22.38;30.84;97369.38;5022891;28;882;-80
2023/06/26 05:07:27;;;;;;;;;;;;;;;22.33;31.01;97365.13;5023367;28;838;-80
2023/06/26 05:09:52;;;;;;;;;;;;;;;22.44;30.92;97371.16;5039500;28;1302;-80
2023/06/26 05:12:18;;;;;;;;;;;;;;;22.49;30.50;97376.22;5038459;28;1707;-80
2023/06/26 05:14:43;;;;;;;;;;;;;;;22.28;30.96;97366.50;5055582;28;711;-80
2023/06/26 05:17:09;;;;;;;;;;;;;;;22.28;31.16;97369.34;5041425;28;1914;-81
2023/06/26 05:19:34;;;;;;;;;;;;;;;22.34;31.02;97364.66;5038954;28;1544;-80
2023/06/26 05:22:03;;;;;;;;;;;;;;;22.32;30.71;97369.97;5056382;28;869;-80
2023/06/26 05:24:29;;;;;;;;;;;;;;;22.31;30.87;97376.13;5055686;28;945;-81
2023/06/26 05:26:55;;;;;;;;;;;;;;;22.48;30.83;97373.81;5039582;28;849;-80
2023/06/26 05:29:21;;;;;;;;;;;;;;;22.60;30.52;97375.78;5021979;28;1522;-80
2023/06/26 05:31:46;;;;;;;;;;;;;;;22.21;30.98;97372.44;4989703;28;1357;-80
2023/06/26 05:34:12;;;;;;;;;;;;;;;22.47;30.72;97386.44;5039134;28;1425;-80
2023/06/26 05:36:37;;;;;;;;;;;;;;;22.50;30.72;97388.34;5023132;28;1898;-80
2023/06/26 05:39:03;;;;;;;;;;;;;;;22.48;30.82;97390.84;5021899;28;1355;-80
2023/06/26 05:41:29;;;;;;;;;;;;;;;22.47;30.59;97392.09;5010168;28;975;-81
2023/06/26 05:43:54;;;;;;;;;;;;;;;22.46;30.86;97396.19;5007688;28;1301;-80
2023/06/26 05:46:20;;;;;;;;;;;;;;;22.72;30.33;97399.59;5025885;28;1119;-80
2023/06/26 05:48:45;;;;;;;;;;;;;;;22.42;30.99;97404.03;5007912;28;1398;-80
2023/06/26 05:51:11;;;;;;;;;;;;;;;22.53;30.87;97410.06;5018344;28;1383;-80
2023/06/26 05:53:36;;;;;;;;;;;;;;;22.42;30.62;97416.16;5021739;28;945;-80
2023/06/26 05:56:02;;;;;;;;;;;;;;;22.38;31.07;97411.88;5022690;28;1247;-80
2023/06/26 05:58:28;;;;;;;;;;;;;;;22.48;30.53;97419.19;5020978;28;1926;-80
2023/06/26 06:00:53;;;;;;;;;;;;;;;22.36;30.77;97418.81;5023888;28;1506;-80
2023/06/26 06:03:19;;;;;;;;;;;;;;;22.27;31.26;97418.75;5024071;28;902;-80
2023/06/26 06:05:44;;;;;;;;;;;;;;;22.38;31.01;97420.38;5025631;28;1108;-80
2023/06/26 06:08:10;;;;;;;;;;;;;;;22.44;30.45;97415.72;5024359;28;1195;-80
2023/06/26 06:10:35;;;;;;;;;;;;;;;22.47;30.64;97428.94;5013538;28;1336;-80
2023/06/26 06:13:01;;;;;;;;;;;;;;;22.65;30.43;97426.22;5004789;28;822;-80
2023/06/26 06:15:26;;;;;;;;;;;;;;;22.52;30.54;97428.34;5004186;28;1374;-80
2023/06/26 06:17:52;;;;;;;;;;;;;;;22.14;30.76;97395.41;5021745;28;1983;-80
2023/06/26 06:20:19;;;;;;;;;;;;;;;22.42;30.72;97432.38;4989151;28;1238;-80
2023/06/26 06:22:45;;;;;;;;;;;;;;;22.66;30.46;97436.28;4989934;28;883;-80
2023/06/26 06:25:10;;;;;;;;;;;;;;;22.27;31.01;97432.94;4988841;28;1331;-81
2023/06/26 06:27:36;;;;;;;;;;;;;;;22.54;30.90;97434.34;5005941;28;859;-80
2023/06/26 06:30:02;;;;;;;;;;;;;;;22.44;30.90;97424.22;4987080;28;1284;-80
2023/06/26 06:32:28;;;;;;;;;;;;;;;22.64;30.74;97424.63;5006352;28;1240;-81
2023/06/26 06:34:53;;;;;;;;;;;;;;;22.56;30.57;97426.94;4988836;28;1181;-81
2023/06/26 06:37:19;;;;;;;;;;;;;;;22.56;30.69;97429.00;5022597;28;1987;-80
2023/06/26 06:39:44;;;;;;;;;;;;;;;22.31;30.97;97427.91;4988387;28;1041;-80
2023/06/26 06:42:10;;;;;;;;;;;;;;;22.38;30.88;97431.72;5004135;28;1515;-80
2023/06/26 06:44:35;;;;;;;;;;;;;;;22.33;30.99;97425.44;4989129;28;1124;-81
2023/06/26 06:47:01;;;;;;;;;;;;;;;22.35;30.93;97422.91;5019825;28;1467;-80
2023/06/26 06:49:26;;;;;;;;;;;;;;;22.46;30.70;97428.16;5025171;28;1285;-80
2023/06/26 06:51:52;;;;;;;;;;;;;;;22.47;30.88;97423.28;5026431;28;1103;-81
2023/06/26 06:54:17;;;;;;;;;;;;;;;22.41;30.63;97425.94;5042314;28;1440;-80
2023/06/26 06:56:43;;;;;;;;;;;;;;;22.33;31.13;97431.09;5000789;28;1918;-80
2023/06/26 06:59:08;;;;;;;;;;;;;;;22.51;30.87;97432.44;4982825;28;1331;-80
2023/06/26 07:01:34;;;;;;;;;;;;;;;22.53;30.68;97438.44;4961796;28;1711;-80
2023/06/26 07:03:59;;;;;;;;;;;;;;;22.59;30.57;97437.38;4943022;29;2194;-81
2023/06/26 07:06:25;;;;;;;;;;;;;;;22.66;30.42;97436.28;4977831;28;1678;-80
2023/06/26 07:08:51;;;;;;;;;;;;;;;22.59;30.50;97434.53;4930838;29;1240;-80
2023/06/26 07:11:16;;;;;;;;;;;;;;;22.25;31.04;97429.78;4946781;29;1129;-81
2023/06/26 07:13:42;;;;;;;;;;;;;;;22.31;31.15;97430.75;4945598;29;1803;-80
2023/06/26 07:16:11;;;;;;;;;;;;;;;22.49;30.89;97432.91;4962764;29;867;-81
2023/06/26 07:18:37;;;;;;;;;;;;;;;22.52;31.06;97431.19;4930385;29;838;-80
2023/06/26 07:21:02;;;;;;;;;;;;;;;22.31;31.10;97430.75;4947000;29;879;-81
2023/06/26 07:23:28;;;;;;;;;;;;;;;22.50;31.20;97428.03;4961713;29;1001;-80
2023/06/26 07:25:53;;;;;;;;;;;;;;;22.41;31.54;97425.16;4947215;29;1793;-80
2023/06/26 07:28:19;;;;;;;;;;;;;;;22.52;31.02;97434.00;4956983;29;952;-80
2023/06/26 07:30:44;;;;;;;;;;;;;;;22.48;31.36;97430.53;4947010;29;932;-81
2023/06/26 07:33:10;;;;;;;;;;;;;;;22.49;31.17;97432.91;4979280;28;1343;-81
2023/06/26 07:35:35;;;;;;;;;;;;;;;22.34;31.29;97432.69;4981824;28;716;-80
2023/06/26 07:38:01;;;;;;;;;;;;;;;22.31;31.28;97438.47;4945674;29;1895;-81
2023/06/26 07:40:27;;;;;;;;;;;;;;;22.55;30.99;97431.03;4962042;29;1159;-80
2023/06/26 07:42:53;;;;;;;;;;;;;;;22.35;31.27;97439.91;4961574;29;971;-80
2023/06/26 07:45:19;;;;;;;;;;;;;;;22.44;31.29;97442.03;4962076;29;1676;-80
2023/06/26 07:47:45;;;;;;;;;;;;;;;22.43;31.16;97439.63;4962208;29;1143;-80
2023/06/26 07:50:10;;;;;;;;;;;;;;;22.44;31.27;97444.84;4961540;29;747;-80
2023/06/26 07:52:36;;;;;;;;;;;;;;;22.46;31.44;97448.00;4962465;29;1096;-80
2023/06/26 07:55:03;;;;;;;;;;;;;;;22.32;31.64;97445.72;4973008;28;1123;-81
2023/06/26 07:57:28;;;;;;;;;;;;;;;22.38;31.35;97457.25;4949384;28;1911;-80
2023/06/26 07:59:54;;;;;;;;;;;;;;;22.35;31.58;97451.25;4980064;28;1156;-81
2023/06/26 08:02:19;;;;;;;;;;;;;;;22.17;32.07;97456.78;5001551;28;1647;-80
2023/06/26 08:04:45;;;;;;;;;;;;;;;22.53;31.26;97458.28;4984777;28;1177;-81
2023/06/26 08:07:10;;;;;;;;;;;;;;;22.26;31.77;97453.25;4985599;28;1240;-80
2023/06/26 08:09:36;;;;;;;;;;;;;;;22.64;31.15;97450.16;5001987;28;857;-80
2023/06/26 08:12:02;;;;;;;;;;;;;;;22.76;31.16;97454.16;4984800;28;890;-81
2023/06/26 08:14:28;;;;;;;;;;;;;;;22.44;31.58;97452.56;4984720;28;1358;-81
2023/06/26 08:16:53;;;;;;;;;;;;;;;22.55;31.21;97456.56;5001769;28;1977;-80
2023/06/26 08:19:19;;;;;;;;;;;;;;;22.34;31.73;97448.91;5000401;28;881;-81
2023/06/26 08:21:44;;;;;;;;;;;;;;;22.17;32.22;97462.47;4985089;28;1300;-80
2023/06/26 08:24:10;;;;;;;;;;;;;;;22.23;32.08;97454.19;5001787;28;826;-80
2023/06/26 08:26:36;;;;;;;;;;;;;;;22.41;31.96;97450.66;5002191;28;930;-80
2023/06/26 08:29:07;;;;;;;;;;;;;;;22.52;31.80;97448.97;5000120;28;755;-81
2023/06/26 08:31:34;;;;;;;;;;;;;;;22.65;31.59;97451.72;5001781;28;870;-80
2023/06/26 08:34:00;;;;;;;;;;;;;;;22.61;31.77;97463.22;4984629;28;1192;-80
2023/06/26 08:36:25;;;;;;;;;;;;;;;22.82;31.25;97455.91;5001283;28;1957;-81
2023/06/26 08:38:51;;;;;;;;;;;;;;;22.64;31.84;97461.50;4981826;28;1594;-80
2023/06/26 08:41:16;;;;;;;;;;;;;;;22.67;31.81;97454.88;5002939;28;1520;-81
2023/06/26 08:43:42;;;;;;;;;;;;;;;22.49;32.15;97460.47;4999625;28;917;-81
2023/06/26 08:46:07;;;;;;;;;;;;;;;22.72;31.56;97462.78;5000780;28;968;-80
2023/06/26 08:48:33;;;;;;;;;;;;;;;22.57;31.93;97458.94;5000871;28;770;-81
2023/06/26 08:51:01;;;;;;;;;;;;;;;22.32;32.47;97469.19;4985700;28;1916;-81
2023/06/26 08:53:30;;;;;;;;;;;;;;;22.30;32.38;97471.69;5018988;28;888;-80
2023/06/26 08:55:57;;;;;;;;;;;;;;;22.31;32.14;97476.09;5013478;28;1467;-80
2023/06/26 08:58:22;;;;;;;;;;;;;;;22.56;31.97;97465.84;4983301;28;1952;-81
2023/06/26 09:00:49;;;;;;;;;;;;;;;22.42;31.73;97463.56;5001479;28;826;-80
2023/06/26 09:03:14;;;;;;;;;;;;;;;22.64;31.79;97470.00;4999725;28;1113;-80
2023/06/26 09:05:40;;;;;;;;;;;;;;;22.58;31.73;97457.66;4968424;28;1204;-80
2023/06/26 09:08:06;;;;;;;;;;;;;;;22.68;31.42;97467.81;5000259;28;890;-81
2023/06/26 09:10:32;;;;;;;;;;;;;;;22.79;31.25;97473.06;4984114;28;1732;-80
2023/06/26 09:12:57;;;;;;;;;;;;;;;22.63;31.76;97466.34;5000200;28;1820;-81
2023/06/26 09:15:23;;;;;;;;;;;;;;;22.58;31.67;97469.00;5019478;28;846;-80
2023/06/26 09:17:49;;;;;;;;;;;;;;;22.44;32.03;97467.53;4988564;28;1980;-80
2023/06/26 09:20:15;;;;;;;;;;;;;;;22.56;31.98;97477.19;5002526;28;1300;-80
2023/06/26 09:22:41;;;;;;;;;;;;;;;22.70;31.65;97470.97;5004467;28;1448;-80
2023/06/26 09:25:06;;;;;;;;;;;;;;;22.44;32.09;97467.53;4983383;28;943;-80
2023/06/26 09:27:32;;;;;;;;;;;;;;;22.65;31.63;97477.25;4984039;28;1847;-80
2023/06/26 09:29:58;;;;;;;;;;;;;;;22.75;31.32;97473.22;4983874;28;822;-80
2023/06/26 09:32:27;;;;;;;;;;;;;;;22.41;31.65;97470.50;4992028;28;1427;-80
2023/06/26 09:34:53;;;;;;;;;;;;;;;22.46;31.30;97478.41;4985871;28;1347;-80
2023/06/26 09:37:19;;;;;;;;;;;;;;;22.65;30.87;97480.09;4970329;28;1911;-80
2023/06/26 09:39:45;;;;;;;;;;;;;;;22.39;31.41;97478.69;5019237;28;926;-80
2023/06/26 09:42:10;;;;;;;;;;;;;;;22.40;31.29;97481.03;5003373;28;1590;-80
2023/06/26 09:44:36;;;;;;;;;;;;;;;22.35;31.38;97484.47;5002425;28;929;-80
2023/06/26 09:47:02;;;;;;;;;;;;;;;22.40;31.73;97475.38;5003552;28;800;-81
2023/06/26 09:49:28;;;;;;;;;;;;;;;22.68;30.91;97473.47;5001149;28;1837;-80
2023/06/26 09:51:53;;;;;;;;;;;;;;;22.70;31.02;97473.03;4983282;28;2035;-80
2023/06/26 09:54:19;;;;;;;;;;;;;;;22.60;31.25;97472.19;4983232;28;962;-80
2023/06/26 09:56:46;;;;;;;;;;;;;;;22.77;31.19;97473.53;5011405;28;1997;-80
2023/06/26 09:59:12;;;;;;;;;;;;;;;22.66;31.15;97467.50;5035887;28;935;-80
2023/06/26 10:01:41;;;;;;;;;;;;;;;23.09;30.90;97479.97;5005585;28;1008;-80
2023/06/26 10:04:06;;;;;;;;;;;;;;;22.72;31.21;97474.13;5004576;28;861;-80
2023/06/26 10:06:36;;;;;;;;;;;;;;;22.79;30.81;97478.72;5003707;28;2057;-80
2023/06/26 10:09:02;;;;;;;;;;;;;;;23.12;30.20;97479.84;5002933;28;2068;-79
2023/06/26 10:11:31;;;;;;;;;;;;;;;23.09;30.29;97474.31;4989277;28;1637;-80
2023/06/26 10:13:56;;;;;;;;;;;;;;;22.97;30.61;97469.53;5004626;28;873;-79
2023/06/26 10:16:23;;;;;;;;;;;;;;;22.92;31.17;97473.00;5003287;28;2127;-78
2023/06/26 10:18:50;;;;;;;;;;;;;;;22.76;31.29;97469.13;5023039;28;997;-78
2023/06/26 10:21:15;;;;;;;;;;;;;;;22.99;30.66;97472.69;5026085;28;1775;-80
2023/06/26 10:23:41;;;;;;;;;;;;;;;23.01;30.73;97458.84;5018239;28;1477;-79
2023/06/26 10:26:07;;;;;;;;;;;;;;;22.96;30.69;97462.28;5002297;28;913;-79
2023/06/26 10:28:32;;;;;;;;;;;;;;;22.88;30.80;97465.41;5003092;28;1785;-80
2023/06/26 10:30:58;;;;;;;;;;;;;;;22.74;30.85;97465.97;5007156;28;860;-81
2023/06/26 10:33:23;;;;;;;;;;;;;;;22.72;30.96;97457.13;4959731;29;1385;-79
2023/06/26 10:35:49;;;;;;;;;;;;;;;22.86;30.91;97456.53;4946349;29;1004;-81
2023/06/26 10:38:15;;;;;;;;;;;;;;;23.02;30.52;97457.59;4946268;29;1919;-81
2023/06/26 10:40:44;;;;;;;;;;;;;;;23.01;30.49;97447.50;4947415;29;1063;-80
2023/06/26 10:43:11;;;;;;;;;;;;;;;22.87;30.47;97451.66;4933295;28;1597;-80
2023/06/26 10:45:37;;;;;;;;;;;;;;;23.04;30.46;97455.06;4982099;28;859;-80
2023/06/26 10:48:04;;;;;;;;;;;;;;;22.93;30.78;97454.72;4964754;28;1415;-81
2023/06/26 10:50:30;;;;;;;;;;;;;;;22.99;30.69;97452.84;4949891;28;936;-80
2023/06/26 10:53:08;;;;;;;;;;;;;;;23.02;30.85;97457.59;4965428;28;1424;-80
2023/06/26 10:55:33;;;;;;;;;;;;;;;22.98;31.17;97451.25;4981984;28;923;-80
2023/06/26 10:57:59;;;;;;;;;;;;;;;22.97;31.30;97455.34;4964629;28;1895;-79
2023/06/26 11:00:24;;;;;;;;;;;;;;;23.08;31.37;97445.13;4949056;28;1424;-80
2023/06/26 11:02:50;;;;;;;;;;;;;;;23.12;31.32;97439.31;4965494;28;954;-80
2023/06/26 11:05:32;;;;;;;;;;;;;;;23.06;31.24;97446.88;4996083;28;934;-80
2023/06/26 11:08:05;;;;;;;;;;;;;;;23.04;31.48;97440.88;5004180;28;1474;-82
2023/06/26 11:10:47;;;;;;;;;;;;;;;23.03;31.64;97444.97;5020753;28;1214;-81
2023/06/26 11:13:12;;;;;;;;;;;;;;;22.91;31.51;97445.88;5022135;28;1505;-80
2023/06/26 11:15:38;;;;;;;;;;;;;;;22.84;31.78;97439.19;5022286;28;824;-81
2023/06/26 11:18:03;;;;;;;;;;;;;;;22.85;31.78;97435.13;5017582;28;1914;-81
2023/06/26 11:20:29;;;;;;;;;;;;;;;22.95;31.70;97435.16;4986089;28;1128;-82
2023/06/26 11:22:54;;;;;;;;;;;;;;;22.88;31.53;97441.91;4970828;28;1200;-81
2023/06/26 11:25:20;;;;;;;;;;;;;;;22.72;32.11;97437.25;4970677;28;1241;-81
2023/06/26 11:27:45;;;;;;;;;;;;;;;22.98;31.50;97445.59;4987159;28;881;-82
2023/06/26 11:30:12;;;;;;;;;;;;;;;23.15;31.16;97438.38;5003306;28;995;-81
2023/06/26 11:32:38;;;;;;;;;;;;;;;23.12;31.54;97440.09;4988525;28;1106;-81
2023/06/26 11:35:04;;;;;;;;;;;;;;;23.04;31.55;97449.38;4985582;28;1914;-80
2023/06/26 11:37:30;;;;;;;;;;;;;;;22.83;31.89;97439.66;4969379;28;1956;-80
2023/06/26 11:39:56;;;;;;;;;;;;;;;22.82;31.79;97438.88;4980267;28;1593;-81
2023/06/26 11:42:21;;;;;;;;;;;;;;;22.91;31.69;97434.53;5002162;28;934;-80
2023/06/26 11:44:47;;;;;;;;;;;;;;;23.07;31.27;97431.44;4997102;28;1450;-81
2023/06/26 11:47:16;;;;;;;;;;;;;;;23.16;30.82;97422.94;4950115;28;1408;-80
2023/06/26 11:49:44;;;;;;;;;;;;;;;23.14;31.18;97428.28;4949639;28;873;-81
2023/06/26 11:52:10;;;;;;;;;;;;;;;22.97;31.30;97438.34;4980498;28;965;-80
2023/06/26 11:54:35;;;;;;;;;;;;;;;22.96;31.37;97436.75;4999094;28;2356;-80
2023/06/26 11:57:01;;;;;;;;;;;;;;;22.84;31.61;97435.56;5000302;28;1973;-80
2023/06/26 11:59:42;;;;;;;;;;;;;;;23.07;31.52;97426.53;4984397;28;1441;-80
2023/06/26 12:02:08;;;;;;;;;;;;;;;22.81;32.17;97433.69;4985832;28;924;-80
2023/06/26 12:04:35;;;;;;;;;;;;;;;23.12;31.44;97433.66;4968015;28;1465;-80
2023/06/26 12:07:03;;;;;;;;;;;;;;;23.01;31.74;97428.41;4969980;28;980;-80
2023/06/26 12:09:30;;;;;;;;;;;;;;;22.94;31.56;97427.91;4984236;28;1032;-81
2023/06/26 12:11:55;;;;;;;;;;;;;;;22.98;31.60;97434.22;4981888;28;1679;-75
2023/06/26 12:14:21;;;;;;;;;;;;;;;23.22;33.88;97432.41;4975555;28;1884;-70
2023/06/26 12:16:47;;;;;;;;;;;;;;;23.68;35.20;97435.34;4978155;28;1983;-70
2023/06/26 12:19:12;;;;;;;;;;;;;;;23.83;34.72;97430.59;4982274;28;1911;-78
2023/06/26 12:21:38;;;;;;;;;;;;;;;23.68;34.32;97428.88;4990314;28;1910;-70
2023/06/26 12:24:04;;;;;;;;;;;;;;;23.94;35.13;97435.81;5014402;28;2029;-71
2023/06/26 12:26:29;;;;;;;;;;;;;;;23.75;36.17;97428.53;5017094;28;933;-71
2023/06/26 12:29:01;;;;;;;;;;;;;;;23.83;37.03;97436.28;5017116;28;1205;-79
2023/06/26 12:31:27;;;;;;;;;;;;;;;23.61;36.01;97432.75;5017266;28;1880;-79
2023/06/26 12:33:52;;;;;;;;;;;;;;;23.04;36.08;97438.81;5050187;28;1444;-79
2023/06/26 12:36:18;;;;;;;;;;;;;;;22.67;35.82;97437.09;5018143;28;1049;-79
2023/06/26 12:38:44;;;;;;;;;;;;;;;22.53;35.65;97444.09;5017331;28;1910;-79
2023/06/26 12:41:15;;;;;;;;;;;;;;;22.55;36.15;97444.44;4981224;28;1105;-78
2023/06/26 12:43:41;;;;;;;;;;;;;;;23.04;34.65;97444.50;5012831;28;1715;-79
2023/06/26 12:46:07;;;;;;;;;;;;;;;23.08;34.40;97438.69;4976399;28;1849;-79
2023/06/26 12:48:39;;;;;;;;;;;;;;;23.21;33.83;97442.19;4964097;28;1230;-79
2023/06/26 12:51:14;;;;;;;;;;;;;;;23.11;33.70;97432.88;5014381;28;986;-79
2023/06/26 12:53:40;;;;;;;;;;;;;;;22.98;33.78;97451.25;4995537;28;1866;-79
2023/06/26 12:56:08;;;;;;;;;;;;;;;23.04;33.24;97449.38;4947619;28;2321;-79